This is the latest recevied weather packets stored in our database for station/object DL8FX-6. If no packets are shown the sender has not sent any weather packets the latest 10 day(s).
| Time | Temp. | Humidity | Pressure | Rain* | Wind** | Luminosity | Snow |
|---|---|---|---|---|---|---|---|
| 1777375229 | 18.33° C | 21% | 1024.1 hPa | 0 mm | - | - | - |
| 1777365624 | 15.56° C | 23% | 1024.4 hPa | 0 mm | - | - | - |
| 1777365020 | 16.11° C | 26% | 1024.5 hPa | 0 mm | - | - | - |
| 1777362664 | 15.56° C | 31% | 1024.4 hPa | 0 mm | - | - | - |
| 1777360852 | 13.33° C | 30% | 1024.4 hPa | 0 mm | - | - | - |
| 1777360249 | 12.78° C | 31% | 1024.4 hPa | 0 mm | - | - | - |
| 1777359685 | 12.78° C | 32% | 1024.5 hPa | 0 mm | - | - | - |
| 1777357833 | 11.67° C | 41% | 1024.4 hPa | 0 mm | - | - | - |
| 1777350041 | 1.67° C | 80% | 1023.7 hPa | 0 mm | - | - | - |
| 1777349437 | 1.11° C | 80% | 1023.5 hPa | 0 mm | - | - | - |
| 1777348230 | 1.67° C | 80% | 1023.4 hPa | 0 mm | - | - | - |
| 1777341043 | 2.22° C | 77% | 1022.8 hPa | 0 mm | - | - | - |
| 1777336817 | 3.33° C | 72% | 1022.3 hPa | 0 mm | - | - | - |
| 1777335064 | 3.89° C | 71% | 1022 hPa | 0 mm | - | - | - |
| 1777333857 | 3.89° C | 71% | 1022 hPa | 0 mm | - | - | - |
| 1777332045 | 4.44° C | 70% | 1022 hPa | 0 mm | - | - | - |
| 1777329025 | 5.56° C | 67% | 1021.8 hPa | 0 mm | - | - | - |
| 1777328421 | 6.11° C | 66% | 1021.7 hPa | 0 mm | - | - | - |
| 1777324857 | 7.22° C | 66% | 1021.6 hPa | 0 mm | - | - | - |
| 1777318274 | 10° C | 59% | 1021 hPa | 0 mm | - | - | - |
| 1777316462 | 11.11° C | 57% | 1020.5 hPa | 0 mm | - | - | - |
| 1777311027 | 13.89° C | 42% | 1019.6 hPa | 0 mm | - | - | - |
| 1777306256 | 16.11° C | 40% | 1019.6 hPa | 0 mm | - | - | - |
| 1777302069 | 17.22° C | 34% | 1019.9 hPa | 0 mm | - | - | - |
| 1777297258 | 19.44° C | 30% | 1020.3 hPa | 0 mm | - | - | - |
* Rain latest hour (hover to see other rain measurements)
** Current wind speed in m/s (hover to see current wind gust speed)